sensor_id;sensor_type;location;lat;lon;timestamp;temperature;humidity
59999;DHT22;45859;51.378;6.736;2023-03-31T00:00:17;10.60;99.90
59999;DHT22;45859;51.378;6.736;2023-03-31T00:02:43;10.60;99.90
59999;DHT22;45859;51.378;6.736;2023-03-31T00:05:10;10.60;99.90
59999;DHT22;45859;51.378;6.736;2023-03-31T00:07:36;10.60;99.90
59999;DHT22;45859;51.378;6.736;2023-03-31T00:10:05;10.70;99.90
59999;DHT22;45859;51.378;6.736;2023-03-31T00:12:31;10.60;99.90
59999;DHT22;45859;51.378;6.736;2023-03-31T00:14:56;10.70;99.90
59999;DHT22;45859;51.378;6.736;2023-03-31T00:17:22;10.60;99.90
59999;DHT22;45859;51.378;6.736;2023-03-31T00:19:47;10.70;99.90
59999;DHT22;45859;51.378;6.736;2023-03-31T00:22:15;10.70;99.90
59999;DHT22;45859;51.378;6.736;2023-03-31T00:24:43;10.70;99.90
59999;DHT22;45859;51.378;6.736;2023-03-31T00:27:09;10.60;99.90
59999;DHT22;45859;51.378;6.736;2023-03-31T00:29:36;10.60;99.90
59999;DHT22;45859;51.378;6.736;2023-03-31T00:32:05;10.50;99.90
59999;DHT22;45859;51.378;6.736;2023-03-31T00:34:31;10.50;99.90
59999;DHT22;45859;51.378;6.736;2023-03-31T00:36:57;10.90;99.90
59999;DHT22;45859;51.378;6.736;2023-03-31T00:39:27;10.60;99.90
59999;DHT22;45859;51.378;6.736;2023-03-31T00:41:57;10.60;99.90
59999;DHT22;45859;51.378;6.736;2023-03-31T00:44:23;10.60;99.90
59999;DHT22;45859;51.378;6.736;2023-03-31T00:47:11;10.60;99.90
59999;DHT22;45859;51.378;6.736;2023-03-31T00:49:42;10.70;99.90
59999;DHT22;45859;51.378;6.736;2023-03-31T00:52:15;10.70;99.90
59999;DHT22;45859;51.378;6.736;2023-03-31T00:54:51;10.60;99.90
59999;DHT22;45859;51.378;6.736;2023-03-31T00:57:18;11.30;99.90
59999;DHT22;45859;51.378;6.736;2023-03-31T00:59:52;10.70;99.90
59999;DHT22;45859;51.378;6.736;2023-03-31T01:02:20;10.70;99.90
59999;DHT22;45859;51.378;6.736;2023-03-31T01:04:51;10.30;99.90
59999;DHT22;45859;51.378;6.736;2023-03-31T01:07:42;10.40;99.90
59999;DHT22;45859;51.378;6.736;2023-03-31T01:10:09;10.30;99.90
59999;DHT22;45859;51.378;6.736;2023-03-31T01:12:44;10.30;99.90
59999;DHT22;45859;51.378;6.736;2023-03-31T01:15:11;10.20;99.90
59999;DHT22;45859;51.378;6.736;2023-03-31T01:17:37;10.20;99.90
59999;DHT22;45859;51.378;6.736;2023-03-31T01:20:15;10.20;99.90
59999;DHT22;45859;51.378;6.736;2023-03-31T01:28:26;10.10;99.90
59999;DHT22;45859;51.378;6.736;2023-03-31T01:42:43;10.00;99.90
59999;DHT22;45859;51.378;6.736;2023-03-31T01:50:40;10.00;99.90
59999;DHT22;45859;51.378;6.736;2023-03-31T02:01:04;10.10;99.90
59999;DHT22;45859;51.378;6.736;2023-03-31T02:03:38;10.10;99.90
59999;DHT22;45859;51.378;6.736;2023-03-31T02:06:11;11.00;99.90
59999;DHT22;45859;51.378;6.736;2023-03-31T02:08:44;10.10;99.90
59999;DHT22;45859;51.378;6.736;2023-03-31T02:11:11;10.10;99.90
59999;DHT22;45859;51.378;6.736;2023-03-31T02:13:39;10.10;99.90
59999;DHT22;45859;51.378;6.736;2023-03-31T02:16:12;10.10;99.90
59999;DHT22;45859;51.378;6.736;2023-03-31T02:18:42;10.10;99.90
59999;DHT22;45859;51.378;6.736;2023-03-31T02:21:08;10.00;99.90
59999;DHT22;45859;51.378;6.736;2023-03-31T02:23:37;10.50;99.90
59999;DHT22;45859;51.378;6.736;2023-03-31T02:26:19;10.70;99.90
59999;DHT22;45859;51.378;6.736;2023-03-31T02:28:48;10.50;99.90
59999;DHT22;45859;51.378;6.736;2023-03-31T02:33:46;10.30;99.90
59999;DHT22;45859;51.378;6.736;2023-03-31T02:36:12;10.30;99.90
59999;DHT22;45859;51.378;6.736;2023-03-31T02:39:25;10.30;99.90
59999;DHT22;45859;51.378;6.736;2023-03-31T02:41:43;10.30;99.90
59999;DHT22;45859;51.378;6.736;2023-03-31T02:44:10;10.60;99.90
59999;DHT22;45859;51.378;6.736;2023-03-31T02:46:36;10.40;99.90
59999;DHT22;45859;51.378;6.736;2023-03-31T02:49:04;11.20;99.90
59999;DHT22;45859;51.378;6.736;2023-03-31T03:03:03;10.60;99.90
59999;DHT22;45859;51.378;6.736;2023-03-31T03:16:44;12.60;99.90
59999;DHT22;45859;51.378;6.736;2023-03-31T03:19:18;10.40;99.90
59999;DHT22;45859;51.378;6.736;2023-03-31T03:21:44;10.80;99.90
59999;DHT22;45859;51.378;6.736;2023-03-31T03:24:13;10.30;99.90
59999;DHT22;45859;51.378;6.736;2023-03-31T03:26:39;10.30;99.90
59999;DHT22;45859;51.378;6.736;2023-03-31T03:29:05;10.30;99.90
59999;DHT22;45859;51.378;6.736;2023-03-31T03:31:31;10.30;99.90
59999;DHT22;45859;51.378;6.736;2023-03-31T03:33:58;10.30;99.90
59999;DHT22;45859;51.378;6.736;2023-03-31T03:36:23;10.30;99.90
59999;DHT22;45859;51.378;6.736;2023-03-31T03:38:49;10.30;99.90
59999;DHT22;45859;51.378;6.736;2023-03-31T03:41:15;10.30;99.90
59999;DHT22;45859;51.378;6.736;2023-03-31T03:43:41;10.30;99.90
59999;DHT22;45859;51.378;6.736;2023-03-31T03:46:07;10.20;99.90
59999;DHT22;45859;51.378;6.736;2023-03-31T03:48:32;10.30;99.90
59999;DHT22;45859;51.378;6.736;2023-03-31T03:50:59;10.40;99.90
59999;DHT22;45859;51.378;6.736;2023-03-31T03:53:25;10.30;99.90
59999;DHT22;45859;51.378;6.736;2023-03-31T03:55:51;10.20;99.90
59999;DHT22;45859;51.378;6.736;2023-03-31T03:58:17;10.30;99.90
59999;DHT22;45859;51.378;6.736;2023-03-31T04:00:44;10.30;99.90
59999;DHT22;45859;51.378;6.736;2023-03-31T04:03:11;10.30;99.90
59999;DHT22;45859;51.378;6.736;2023-03-31T04:05:37;10.30;99.90
59999;DHT22;45859;51.378;6.736;2023-03-31T04:08:03;10.30;99.90
59999;DHT22;45859;51.378;6.736;2023-03-31T04:10:30;10.30;99.90
59999;DHT22;45859;51.378;6.736;2023-03-31T04:12:56;10.30;99.90
59999;DHT22;45859;51.378;6.736;2023-03-31T04:15:22;10.20;99.90
59999;DHT22;45859;51.378;6.736;2023-03-31T04:17:48;10.30;99.90
59999;DHT22;45859;51.378;6.736;2023-03-31T04:20:16;10.30;99.90
59999;DHT22;45859;51.378;6.736;2023-03-31T04:22:42;10.30;99.90
59999;DHT22;45859;51.378;6.736;2023-03-31T04:25:12;10.10;99.90
59999;DHT22;45859;51.378;6.736;2023-03-31T04:27:51;10.20;99.90
59999;DHT22;45859;51.378;6.736;2023-03-31T04:30:25;10.30;99.90
59999;DHT22;45859;51.378;6.736;2023-03-31T04:32:57;10.30;99.90
59999;DHT22;45859;51.378;6.736;2023-03-31T04:35:25;10.30;99.90
59999;DHT22;45859;51.378;6.736;2023-03-31T04:37:52;10.30;99.90
59999;DHT22;45859;51.378;6.736;2023-03-31T04:40:23;10.20;99.90
59999;DHT22;45859;51.378;6.736;2023-03-31T04:42:50;10.20;99.90
59999;DHT22;45859;51.378;6.736;2023-03-31T04:45:16;10.30;99.90
59999;DHT22;45859;51.378;6.736;2023-03-31T04:47:42;10.30;99.90
59999;DHT22;45859;51.378;6.736;2023-03-31T04:50:08;10.40;99.90
59999;DHT22;45859;51.378;6.736;2023-03-31T04:52:36;10.20;99.90
59999;DHT22;45859;51.378;6.736;2023-03-31T04:55:02;9.30;99.90
59999;DHT22;45859;51.378;6.736;2023-03-31T04:57:28;10.20;99.90
59999;DHT22;45859;51.378;6.736;2023-03-31T04:59:54;10.20;99.90
59999;DHT22;45859;51.378;6.736;2023-03-31T05:02:19;10.10;99.90
59999;DHT22;45859;51.378;6.736;2023-03-31T05:04:49;10.10;99.90
59999;DHT22;45859;51.378;6.736;2023-03-31T05:07:16;10.10;99.90
59999;DHT22;45859;51.378;6.736;2023-03-31T05:09:42;10.10;99.90
59999;DHT22;45859;51.378;6.736;2023-03-31T05:12:08;10.10;99.90
59999;DHT22;45859;51.378;6.736;2023-03-31T05:14:33;10.40;99.90
59999;DHT22;45859;51.378;6.736;2023-03-31T05:16:59;10.00;99.90
59999;DHT22;45859;51.378;6.736;2023-03-31T05:19:25;9.90;99.90
59999;DHT22;45859;51.378;6.736;2023-03-31T05:21:51;10.00;99.90
59999;DHT22;45859;51.378;6.736;2023-03-31T05:24:17;10.00;99.90
59999;DHT22;45859;51.378;6.736;2023-03-31T05:26:42;10.00;99.90
59999;DHT22;45859;51.378;6.736;2023-03-31T05:29:14;10.00;99.90
59999;DHT22;45859;51.378;6.736;2023-03-31T05:31:41;10.00;99.90
59999;DHT22;45859;51.378;6.736;2023-03-31T05:34:07;10.00;99.90
59999;DHT22;45859;51.378;6.736;2023-03-31T05:36:33;10.00;99.90
59999;DHT22;45859;51.378;6.736;2023-03-31T05:38:59;9.80;99.90
59999;DHT22;45859;51.378;6.736;2023-03-31T05:41:25;11.20;99.90
59999;DHT22;45859;51.378;6.736;2023-03-31T05:43:51;10.10;99.90
59999;DHT22;45859;51.378;6.736;2023-03-31T05:46:16;10.10;99.90
59999;DHT22;45859;51.378;6.736;2023-03-31T05:48:42;10.10;99.90
59999;DHT22;45859;51.378;6.736;2023-03-31T05:51:09;10.20;99.90
59999;DHT22;45859;51.378;6.736;2023-03-31T05:53:35;10.20;99.90
59999;DHT22;45859;51.378;6.736;2023-03-31T05:56:03;10.10;99.90
59999;DHT22;45859;51.378;6.736;2023-03-31T05:58:30;11.30;99.90
59999;DHT22;45859;51.378;6.736;2023-03-31T06:01:04;10.20;99.90
59999;DHT22;45859;51.378;6.736;2023-03-31T06:03:32;10.40;99.90
59999;DHT22;45859;51.378;6.736;2023-03-31T06:05:58;10.20;99.90
59999;DHT22;45859;51.378;6.736;2023-03-31T06:08:23;10.20;99.90
59999;DHT22;45859;51.378;6.736;2023-03-31T06:10:49;10.20;99.90
59999;DHT22;45859;51.378;6.736;2023-03-31T06:13:15;10.20;99.90
59999;DHT22;45859;51.378;6.736;2023-03-31T06:15:41;10.20;99.90
59999;DHT22;45859;51.378;6.736;2023-03-31T06:18:07;10.10;99.90
59999;DHT22;45859;51.378;6.736;2023-03-31T06:20:35;10.10;99.90
59999;DHT22;45859;51.378;6.736;2023-03-31T06:23:01;10.10;99.90
59999;DHT22;45859;51.378;6.736;2023-03-31T06:25:27;10.10;99.90
59999;DHT22;45859;51.378;6.736;2023-03-31T06:30:19;10.20;99.90
59999;DHT22;45859;51.378;6.736;2023-03-31T06:32:44;9.90;99.90
59999;DHT22;45859;51.378;6.736;2023-03-31T06:35:10;9.90;99.90
59999;DHT22;45859;51.378;6.736;2023-03-31T06:37:36;10.00;99.90
59999;DHT22;45859;51.378;6.736;2023-03-31T06:40:01;10.00;99.90
59999;DHT22;45859;51.378;6.736;2023-03-31T06:42:27;10.00;99.90
59999;DHT22;45859;51.378;6.736;2023-03-31T06:44:53;9.10;99.90
59999;DHT22;45859;51.378;6.736;2023-03-31T06:47:20;11.30;99.90
59999;DHT22;45859;51.378;6.736;2023-03-31T06:49:45;9.00;99.90
59999;DHT22;45859;51.378;6.736;2023-03-31T06:52:11;9.90;99.90
59999;DHT22;45859;51.378;6.736;2023-03-31T06:54:37;9.90;99.90
59999;DHT22;45859;51.378;6.736;2023-03-31T06:57:02;9.90;99.90
59999;DHT22;45859;51.378;6.736;2023-03-31T06:59:28;9.90;99.90
59999;DHT22;45859;51.378;6.736;2023-03-31T07:01:54;9.90;99.90
59999;DHT22;45859;51.378;6.736;2023-03-31T07:06:45;9.70;99.90
59999;DHT22;45859;51.378;6.736;2023-03-31T07:09:11;9.90;99.90
59999;DHT22;45859;51.378;6.736;2023-03-31T07:11:37;9.90;99.90
59999;DHT22;45859;51.378;6.736;2023-03-31T07:14:02;9.90;99.90
59999;DHT22;45859;51.378;6.736;2023-03-31T07:16:28;9.90;99.90
59999;DHT22;45859;51.378;6.736;2023-03-31T07:18:53;9.90;99.90
59999;DHT22;45859;51.378;6.736;2023-03-31T07:21:24;10.00;99.90
59999;DHT22;45859;51.378;6.736;2023-03-31T07:23:50;10.00;99.90
59999;DHT22;45859;51.378;6.736;2023-03-31T07:26:16;9.90;99.90
59999;DHT22;45859;51.378;6.736;2023-03-31T07:28:42;9.90;99.90
59999;DHT22;45859;51.378;6.736;2023-03-31T07:31:11;9.90;99.90
59999;DHT22;45859;51.378;6.736;2023-03-31T07:33:38;9.90;99.90
59999;DHT22;45859;51.378;6.736;2023-03-31T07:36:05;9.90;99.90
59999;DHT22;45859;51.378;6.736;2023-03-31T07:38:30;9.90;99.90
59999;DHT22;45859;51.378;6.736;2023-03-31T07:40:56;9.90;99.90
59999;DHT22;45859;51.378;6.736;2023-03-31T07:43:22;9.90;99.90
59999;DHT22;45859;51.378;6.736;2023-03-31T07:45:48;9.90;99.90
59999;DHT22;45859;51.378;6.736;2023-03-31T07:48:13;10.00;99.90
59999;DHT22;45859;51.378;6.736;2023-03-31T07:50:39;10.00;99.90
59999;DHT22;45859;51.378;6.736;2023-03-31T07:53:05;10.10;99.90
59999;DHT22;45859;51.378;6.736;2023-03-31T07:55:31;10.10;99.90
59999;DHT22;45859;51.378;6.736;2023-03-31T07:57:56;10.10;99.90
59999;DHT22;45859;51.378;6.736;2023-03-31T08:00:22;10.10;99.90
59999;DHT22;45859;51.378;6.736;2023-03-31T08:02:48;10.00;99.90
59999;DHT22;45859;51.378;6.736;2023-03-31T08:05:16;10.00;99.90
59999;DHT22;45859;51.378;6.736;2023-03-31T08:07:44;10.00;99.90
59999;DHT22;45859;51.378;6.736;2023-03-31T08:10:19;10.70;99.90
59999;DHT22;45859;51.378;6.736;2023-03-31T08:12:46;10.20;99.90
59999;DHT22;45859;51.378;6.736;2023-03-31T08:15:12;10.00;99.90
59999;DHT22;45859;51.378;6.736;2023-03-31T08:17:38;10.00;99.90
59999;DHT22;45859;51.378;6.736;2023-03-31T08:20:05;10.10;99.90
59999;DHT22;45859;51.378;6.736;2023-03-31T08:22:32;10.70;99.90
59999;DHT22;45859;51.378;6.736;2023-03-31T08:24:57;10.10;99.90
59999;DHT22;45859;51.378;6.736;2023-03-31T08:27:23;10.30;99.90
59999;DHT22;45859;51.378;6.736;2023-03-31T08:29:50;10.30;99.90
59999;DHT22;45859;51.378;6.736;2023-03-31T08:32:16;10.50;99.90
59999;DHT22;45859;51.378;6.736;2023-03-31T08:34:42;10.70;99.90
59999;DHT22;45859;51.378;6.736;2023-03-31T08:37:08;10.80;99.90
59999;DHT22;45859;51.378;6.736;2023-03-31T08:39:34;10.90;99.90
59999;DHT22;45859;51.378;6.736;2023-03-31T08:44:58;11.10;99.90
59999;DHT22;45859;51.378;6.736;2023-03-31T08:47:29;11.10;99.90
59999;DHT22;45859;51.378;6.736;2023-03-31T08:49:59;11.30;99.90
59999;DHT22;45859;51.378;6.736;2023-03-31T08:52:33;11.40;99.90
59999;DHT22;45859;51.378;6.736;2023-03-31T08:55:03;11.50;99.90
59999;DHT22;45859;51.378;6.736;2023-03-31T09:00:18;11.80;99.90
59999;DHT22;45859;51.378;6.736;2023-03-31T09:03:03;11.80;99.90
59999;DHT22;45859;51.378;6.736;2023-03-31T09:05:58;11.90;99.90
59999;DHT22;45859;51.378;6.736;2023-03-31T09:14:19;11.90;99.90
59999;DHT22;45859;51.378;6.736;2023-03-31T09:19:39;11.80;99.90
59999;DHT22;45859;51.378;6.736;2023-03-31T09:22:15;11.80;99.90
59999;DHT22;45859;51.378;6.736;2023-03-31T09:27:19;11.90;99.90
59999;DHT22;45859;51.378;6.736;2023-03-31T09:29:47;12.00;99.90
59999;DHT22;45859;51.378;6.736;2023-03-31T09:32:20;12.10;99.90
59999;DHT22;45859;51.378;6.736;2023-03-31T09:34:49;12.20;99.90
59999;DHT22;45859;51.378;6.736;2023-03-31T09:37:16;12.30;99.90
59999;DHT22;45859;51.378;6.736;2023-03-31T09:39:42;12.40;99.90
59999;DHT22;45859;51.378;6.736;2023-03-31T09:42:11;12.50;99.90
59999;DHT22;45859;51.378;6.736;2023-03-31T09:44:56;12.60;99.90
59999;DHT22;45859;51.378;6.736;2023-03-31T09:48:04;12.70;99.90
59999;DHT22;45859;51.378;6.736;2023-03-31T09:50:23;12.80;99.90
59999;DHT22;45859;51.378;6.736;2023-03-31T09:52:56;13.00;99.90
59999;DHT22;45859;51.378;6.736;2023-03-31T09:57:54;13.50;99.90
59999;DHT22;45859;51.378;6.736;2023-03-31T10:00:21;13.80;99.90
59999;DHT22;45859;51.378;6.736;2023-03-31T10:02:52;13.90;99.90
59999;DHT22;45859;51.378;6.736;2023-03-31T10:05:20;14.00;99.90
59999;DHT22;45859;51.378;6.736;2023-03-31T10:07:47;13.90;99.90
59999;DHT22;45859;51.378;6.736;2023-03-31T10:10:30;13.50;99.90
59999;DHT22;45859;51.378;6.736;2023-03-31T10:12:57;12.40;99.90
59999;DHT22;45859;51.378;6.736;2023-03-31T10:15:27;12.00;99.90
59999;DHT22;45859;51.378;6.736;2023-03-31T10:17:53;11.70;99.90
59999;DHT22;45859;51.378;6.736;2023-03-31T10:20:42;11.60;99.90
59999;DHT22;45859;51.378;6.736;2023-03-31T10:23:26;11.70;99.90
59999;DHT22;45859;51.378;6.736;2023-03-31T10:25:53;11.90;99.90
59999;DHT22;45859;51.378;6.736;2023-03-31T10:28:20;12.20;99.90
59999;DHT22;45859;51.378;6.736;2023-03-31T10:30:48;12.40;99.90
59999;DHT22;45859;51.378;6.736;2023-03-31T10:33:18;12.60;99.90
59999;DHT22;45859;51.378;6.736;2023-03-31T10:35:47;12.80;99.90
59999;DHT22;45859;51.378;6.736;2023-03-31T10:38:17;12.90;99.90
59999;DHT22;45859;51.378;6.736;2023-03-31T10:40:54;13.00;99.90
59999;DHT22;45859;51.378;6.736;2023-03-31T10:43:26;13.20;99.90
59999;DHT22;45859;51.378;6.736;2023-03-31T10:45:55;13.40;99.90
59999;DHT22;45859;51.378;6.736;2023-03-31T10:50:52;13.50;99.90
59999;DHT22;45859;51.378;6.736;2023-03-31T10:53:19;13.40;99.90
59999;DHT22;45859;51.378;6.736;2023-03-31T11:04:17;11.80;99.90
59999;DHT22;45859;51.378;6.736;2023-03-31T11:09:56;12.20;99.90
59999;DHT22;45859;51.378;6.736;2023-03-31T11:20:37;12.60;99.90
59999;DHT22;45859;51.378;6.736;2023-03-31T11:39:34;12.80;99.90
59999;DHT22;45859;51.378;6.736;2023-03-31T11:42:33;12.80;99.90
59999;DHT22;45859;51.378;6.736;2023-03-31T11:45:10;12.80;99.90
59999;DHT22;45859;51.378;6.736;2023-03-31T11:47:38;12.80;99.90
59999;DHT22;45859;51.378;6.736;2023-03-31T11:50:11;12.90;99.90
59999;DHT22;45859;51.378;6.736;2023-03-31T11:52:53;13.10;99.90
59999;DHT22;45859;51.378;6.736;2023-03-31T11:55:23;13.30;99.90
59999;DHT22;45859;51.378;6.736;2023-03-31T11:58:03;13.60;99.90
59999;DHT22;45859;51.378;6.736;2023-03-31T12:00:57;13.90;99.90
59999;DHT22;45859;51.378;6.736;2023-03-31T12:03:48;14.10;99.90
59999;DHT22;45859;51.378;6.736;2023-03-31T12:06:19;14.30;99.90
59999;DHT22;45859;51.378;6.736;2023-03-31T12:11:34;14.10;99.90
59999;DHT22;45859;51.378;6.736;2023-03-31T12:16:50;13.80;99.90
59999;DHT22;45859;51.378;6.736;2023-03-31T12:21:50;13.50;99.90
59999;DHT22;45859;51.378;6.736;2023-03-31T12:24:18;13.40;99.90
59999;DHT22;45859;51.378;6.736;2023-03-31T12:27:17;13.10;99.90
59999;DHT22;45859;51.378;6.736;2023-03-31T12:30:02;12.80;99.90
59999;DHT22;45859;51.378;6.736;2023-03-31T12:32:35;12.80;99.90
59999;DHT22;45859;51.378;6.736;2023-03-31T12:35:25;12.90;99.90
59999;DHT22;45859;51.378;6.736;2023-03-31T12:46:50;13.90;99.90
59999;DHT22;45859;51.378;6.736;2023-03-31T12:52:07;14.40;99.90
59999;DHT22;45859;51.378;6.736;2023-03-31T12:57:30;14.40;99.90
59999;DHT22;45859;51.378;6.736;2023-03-31T13:02:31;14.60;99.90
59999;DHT22;45859;51.378;6.736;2023-03-31T13:04:56;14.70;99.90
59999;DHT22;45859;51.378;6.736;2023-03-31T13:09:56;14.60;99.90
59999;DHT22;45859;51.378;6.736;2023-03-31T13:12:23;14.50;99.90
59999;DHT22;45859;51.378;6.736;2023-03-31T13:14:54;14.50;99.90
59999;DHT22;45859;51.378;6.736;2023-03-31T13:17:34;14.70;99.90
59999;DHT22;45859;51.378;6.736;2023-03-31T13:20:25;14.70;99.90
59999;DHT22;45859;51.378;6.736;2023-03-31T13:25:40;14.90;99.90
59999;DHT22;45859;51.378;6.736;2023-03-31T13:30:43;15.00;99.90
59999;DHT22;45859;51.378;6.736;2023-03-31T13:44:55;15.00;99.90
59999;DHT22;45859;51.378;6.736;2023-03-31T13:58:20;15.30;99.90
59999;DHT22;45859;51.378;6.736;2023-03-31T14:03:33;15.20;99.90
59999;DHT22;45859;51.378;6.736;2023-03-31T14:06:16;15.40;99.90
59999;DHT22;45859;51.378;6.736;2023-03-31T14:08:50;15.40;99.90
59999;DHT22;45859;51.378;6.736;2023-03-31T14:11:28;15.50;99.90
59999;DHT22;45859;51.378;6.736;2023-03-31T14:14:11;15.50;99.90
59999;DHT22;45859;51.378;6.736;2023-03-31T14:19:28;15.40;99.90
59999;DHT22;45859;51.378;6.736;2023-03-31T14:33:58;15.00;99.90
59999;DHT22;45859;51.378;6.736;2023-03-31T14:38:34;14.70;99.90
59999;DHT22;45859;51.378;6.736;2023-03-31T14:41:00;14.60;99.90
59999;DHT22;45859;51.378;6.736;2023-03-31T14:43:28;14.40;99.90
59999;DHT22;45859;51.378;6.736;2023-03-31T14:46:08;14.10;99.90
59999;DHT22;45859;51.378;6.736;2023-03-31T14:48:40;13.80;99.90
59999;DHT22;45859;51.378;6.736;2023-03-31T14:51:10;13.40;99.90
59999;DHT22;45859;51.378;6.736;2023-03-31T14:53:36;13.00;99.90
59999;DHT22;45859;51.378;6.736;2023-03-31T14:56:06;12.80;99.90
59999;DHT22;45859;51.378;6.736;2023-03-31T14:58:33;12.70;99.90
59999;DHT22;45859;51.378;6.736;2023-03-31T15:01:02;12.60;99.90
59999;DHT22;45859;51.378;6.736;2023-03-31T15:03:29;12.50;99.90
59999;DHT22;45859;51.378;6.736;2023-03-31T15:05:59;12.50;99.90
59999;DHT22;45859;51.378;6.736;2023-03-31T15:08:27;12.40;99.90
59999;DHT22;45859;51.378;6.736;2023-03-31T15:10:57;12.40;99.90
59999;DHT22;45859;51.378;6.736;2023-03-31T15:15:58;12.20;99.90
59999;DHT22;45859;51.378;6.736;2023-03-31T15:18:25;12.10;99.90
59999;DHT22;45859;51.378;6.736;2023-03-31T15:20:52;12.00;99.90
59999;DHT22;45859;51.378;6.736;2023-03-31T15:26:00;12.10;99.90
59999;DHT22;45859;51.378;6.736;2023-03-31T15:28:32;12.10;99.90
59999;DHT22;45859;51.378;6.736;2023-03-31T15:31:01;12.20;99.90
59999;DHT22;45859;51.378;6.736;2023-03-31T15:33:33;12.20;99.90
59999;DHT22;45859;51.378;6.736;2023-03-31T15:36:01;12.30;99.90
59999;DHT22;45859;51.378;6.736;2023-03-31T15:38:28;11.40;99.90
59999;DHT22;45859;51.378;6.736;2023-03-31T15:40:57;12.40;99.90
59999;DHT22;45859;51.378;6.736;2023-03-31T15:45:59;12.70;99.90
59999;DHT22;45859;51.378;6.736;2023-03-31T15:53:29;12.80;99.90
59999;DHT22;45859;51.378;6.736;2023-03-31T15:55:57;13.00;99.90
59999;DHT22;45859;51.378;6.736;2023-03-31T15:59:00;12.80;99.90
59999;DHT22;45859;51.378;6.736;2023-03-31T16:01:33;12.80;99.90
59999;DHT22;45859;51.378;6.736;2023-03-31T16:04:04;12.90;99.90
59999;DHT22;45859;51.378;6.736;2023-03-31T16:09:08;12.90;99.90
59999;DHT22;45859;51.378;6.736;2023-03-31T16:11:47;13.00;99.90
59999;DHT22;45859;51.378;6.736;2023-03-31T16:14:21;13.00;99.90
59999;DHT22;45859;51.378;6.736;2023-03-31T16:16:58;13.00;99.90
59999;DHT22;45859;51.378;6.736;2023-03-31T16:19:28;13.20;99.90
59999;DHT22;45859;51.378;6.736;2023-03-31T16:21:57;12.90;99.90
59999;DHT22;45859;51.378;6.736;2023-03-31T16:24:31;12.80;99.90
59999;DHT22;45859;51.378;6.736;2023-03-31T16:27:05;12.80;99.90
59999;DHT22;45859;51.378;6.736;2023-03-31T16:29:34;12.70;99.90
59999;DHT22;45859;51.378;6.736;2023-03-31T16:32:10;12.60;99.90
59999;DHT22;45859;51.378;6.736;2023-03-31T16:34:54;12.50;99.90
59999;DHT22;45859;51.378;6.736;2023-03-31T16:37:20;12.40;99.90
59999;DHT22;45859;51.378;6.736;2023-03-31T16:39:46;12.30;99.90
59999;DHT22;45859;51.378;6.736;2023-03-31T16:42:12;12.20;99.90
59999;DHT22;45859;51.378;6.736;2023-03-31T16:44:37;12.10;99.90
59999;DHT22;45859;51.378;6.736;2023-03-31T16:47:03;11.90;99.90
59999;DHT22;45859;51.378;6.736;2023-03-31T16:49:28;11.80;99.90
59999;DHT22;45859;51.378;6.736;2023-03-31T16:51:55;11.70;99.90
59999;DHT22;45859;51.378;6.736;2023-03-31T16:54:20;11.60;99.90
59999;DHT22;45859;51.378;6.736;2023-03-31T16:56:46;11.60;99.90
59999;DHT22;45859;51.378;6.736;2023-03-31T16:59:12;11.60;99.90
59999;DHT22;45859;51.378;6.736;2023-03-31T17:01:38;11.50;99.90
59999;DHT22;45859;51.378;6.736;2023-03-31T17:04:04;11.40;99.90
59999;DHT22;45859;51.378;6.736;2023-03-31T17:06:29;11.40;99.90
59999;DHT22;45859;51.378;6.736;2023-03-31T17:08:55;11.40;99.90
59999;DHT22;45859;51.378;6.736;2023-03-31T17:11:21;11.20;99.90
59999;DHT22;45859;51.378;6.736;2023-03-31T17:13:47;11.10;99.90
59999;DHT22;45859;51.378;6.736;2023-03-31T17:16:13;11.10;99.90
59999;DHT22;45859;51.378;6.736;2023-03-31T17:18:39;11.00;99.90
59999;DHT22;45859;51.378;6.736;2023-03-31T17:21:11;11.00;99.90
59999;DHT22;45859;51.378;6.736;2023-03-31T17:23:38;10.90;99.90
59999;DHT22;45859;51.378;6.736;2023-03-31T17:26:05;10.90;99.90
59999;DHT22;45859;51.378;6.736;2023-03-31T17:28:31;11.00;99.90
59999;DHT22;45859;51.378;6.736;2023-03-31T17:30:57;11.50;99.90
59999;DHT22;45859;51.378;6.736;2023-03-31T17:33:24;10.70;99.90
59999;DHT22;45859;51.378;6.736;2023-03-31T17:35:49;10.70;99.90
59999;DHT22;45859;51.378;6.736;2023-03-31T17:38:15;10.70;99.90
59999;DHT22;45859;51.378;6.736;2023-03-31T17:40:43;11.70;99.90
59999;DHT22;45859;51.378;6.736;2023-03-31T17:43:09;11.30;99.90
59999;DHT22;45859;51.378;6.736;2023-03-31T17:45:35;10.60;99.90
59999;DHT22;45859;51.378;6.736;2023-03-31T17:48:01;11.20;99.90
59999;DHT22;45859;51.378;6.736;2023-03-31T17:50:27;10.70;99.90
59999;DHT22;45859;51.378;6.736;2023-03-31T17:52:53;11.40;99.90
59999;DHT22;45859;51.378;6.736;2023-03-31T17:55:19;10.80;99.90
59999;DHT22;45859;51.378;6.736;2023-03-31T17:57:45;10.20;99.90
59999;DHT22;45859;51.378;6.736;2023-03-31T18:00:12;10.40;99.90
59999;DHT22;45859;51.378;6.736;2023-03-31T18:02:40;10.60;99.90
59999;DHT22;45859;51.378;6.736;2023-03-31T18:05:06;10.30;99.90
59999;DHT22;45859;51.378;6.736;2023-03-31T18:07:33;10.50;99.90
59999;DHT22;45859;51.378;6.736;2023-03-31T18:10:00;10.50;99.90
59999;DHT22;45859;51.378;6.736;2023-03-31T18:12:26;10.50;99.90
59999;DHT22;45859;51.378;6.736;2023-03-31T18:14:53;10.50;99.90
59999;DHT22;45859;51.378;6.736;2023-03-31T18:17:20;10.50;99.90
59999;DHT22;45859;51.378;6.736;2023-03-31T18:19:45;10.50;99.90
59999;DHT22;45859;51.378;6.736;2023-03-31T18:22:11;10.50;99.90
59999;DHT22;45859;51.378;6.736;2023-03-31T18:24:37;10.60;99.90
59999;DHT22;45859;51.378;6.736;2023-03-31T18:27:04;10.50;99.90
59999;DHT22;45859;51.378;6.736;2023-03-31T18:29:30;10.70;99.90
59999;DHT22;45859;51.378;6.736;2023-03-31T18:31:55;10.60;99.90
59999;DHT22;45859;51.378;6.736;2023-03-31T18:34:21;10.50;99.90
59999;DHT22;45859;51.378;6.736;2023-03-31T18:36:47;10.50;99.90
59999;DHT22;45859;51.378;6.736;2023-03-31T18:39:13;10.80;99.90
59999;DHT22;45859;51.378;6.736;2023-03-31T18:41:43;11.00;99.90
59999;DHT22;45859;51.378;6.736;2023-03-31T18:44:09;10.60;99.90
59999;DHT22;45859;51.378;6.736;2023-03-31T18:46:35;11.80;99.90
59999;DHT22;45859;51.378;6.736;2023-03-31T18:49:01;10.70;99.90
59999;DHT22;45859;51.378;6.736;2023-03-31T18:51:27;10.70;99.90
59999;DHT22;45859;51.378;6.736;2023-03-31T18:53:52;11.40;99.90
59999;DHT22;45859;51.378;6.736;2023-03-31T18:56:18;11.60;99.90
59999;DHT22;45859;51.378;6.736;2023-03-31T18:58:44;10.90;99.90
59999;DHT22;45859;51.378;6.736;2023-03-31T19:01:09;11.60;99.90
59999;DHT22;45859;51.378;6.736;2023-03-31T19:03:35;11.00;99.90
59999;DHT22;45859;51.378;6.736;2023-03-31T19:06:02;11.00;99.90
59999;DHT22;45859;51.378;6.736;2023-03-31T19:08:29;11.00;99.90
59999;DHT22;45859;51.378;6.736;2023-03-31T19:11:12;11.00;99.90
59999;DHT22;45859;51.378;6.736;2023-03-31T19:13:40;11.00;99.90